Hiles, WI

10:55 PM CDT on October 01, 2014 (GMT -0500)
Argonne, WI | Change Station
CLOSE
Current Station
Personal Weather Station
Location: Argonne, WI
Elevation: 1620 ft
Nearby Weather Stations

Elev 1620 ft 45.65 °N, 88.86 °W | Updated 7 seconds ago

Overcast
Overcast
52.9 °F
Feels Like 52.9 °F
N
6.0
Wind Variable Wind from SSE
Gusts 11.0 mph

Today
High -- | Low -- °F
--% Chance of Precip.
Yesterday
High -- | Low -- °F
Precip. -- in
6:53 AM 6:35 PM
First Quarter, 54% visible
Pressure 29.88 in
Visibility 5.0 miles
Clouds Overcast 800 ft
Dew Point 52 °F
Humidity 96%
Rainfall 0.02 in
Snow Depth Not available.
UV 0 out of 12
Pollen 1.10 out of 12
Air Quality Not available.
Flu Activity Not available.
METAR KEGV 020335Z AUTO 16004KT 5SM BR OVC008 12/12 A2988 RMK AO2 T01200116

More Conditions Fewer Conditions

Pressure 29.88 in
Visibility 5.0 miles
Clouds Overcast 800 ft
Dew Point 52 °F
Humidity 96%
Rainfall 0.02 in
Snow Depth Not available.
UV 0 out of 12
Pollen 1.10 out of 12
Air Quality Not available.
Flu Activity Not available.
METAR KEGV 020335Z AUTO 16004KT 5SM BR OVC008 12/12 A2988 RMK AO2 T01200116

More Conditions Fewer Conditions

10-Day Weather Forecast

Almanac

Astronomy

Oct. 01, 2014 Rise Set
Actual Time 6:53 AM CDT 6:35 PM CDT
Civil Twilight 6:24 AM CDT 7:05 PM CDT
Nautical Twilight 5:49 AM CDT 7:39 PM CDT
Astronomical Twilight 5:14 AM CDT 8:14 PM CDT
Moon 2:07 PM CDT (10/1) 11:54 PM CDT (10/1)
Length of Visible Light 12h 41m
Length of Day
11h 41m
Tomorrow will be 3m 12s shorter.
First Quarter, 54% of the Moon is Illuminated
Today
First Quarter
Oct 8
Full
Oct 15
Last Quarter
Oct 23
New
Oct 30
First Quarter

Today's Extremes

State Highs State Lows

Community

WunderPhotos

Upload Photos

1,758,170 photos uploaded!

Nearby

Snow Depth

Station Depth Elevation
No new snow has been reported.

Earthquake Activity

City Distance Mag. Time & Date
No recent earthquake activity has been reported nearby.
Minimum magnitude displayed is 2.5.

Coastal Water Temperatures

Place Temperature
No Stations Reporting

Nearby Weather Stations